Time;durP1;ratioP1;P1;durP2;ratioP2;P2;SDS_P1;SDS_P2;PMS_P1;PMS_P2;Temp;Humidity;BMP_temperature;BMP_pressure;BME280_temperature;BME280_humidity;BME280_pressure;Samples;Min_cycle;Max_cycle;Signal;HPM_P1;HPM_P2
2023/04/07 00:00:58;;;;;;;15.43;5.23;;;;;;;15.78;60.06;101580.06;5089211;28;20058;-67
2023/04/07 00:03:24;;;;;;;19.43;6.13;;;;;;;16.05;58.20;101573.41;5086411;28;20027;-67
2023/04/07 00:05:50;;;;;;;13.27;5.67;;;;;;;15.03;61.06;101577.94;5087958;28;20020;-67
2023/04/07 00:08:15;;;;;;;13.47;5.13;;;;;;;15.60;61.31;101570.78;5087204;28;20480;-67
2023/04/07 00:10:41;;;;;;;11.10;5.17;;;;;;;16.24;56.81;101570.38;5086966;28;20539;-67
2023/04/07 00:13:06;;;;;;;11.17;4.53;;;;;;;16.43;56.16;101576.97;5088079;28;20032;-67
2023/04/07 00:15:31;;;;;;;15.07;5.27;;;;;;;17.02;54.51;101574.75;5088290;28;20032;-67
2023/04/07 00:17:57;;;;;;;8.67;4.40;;;;;;;16.94;53.65;101582.88;5088142;28;20028;-67
2023/04/07 00:20:22;;;;;;;8.70;4.43;;;;;;;16.16;57.61;101577.59;5087421;28;20024;-67
2023/04/07 00:22:48;;;;;;;9.67;4.03;;;;;;;16.96;54.66;101575.78;5085733;28;20096;-67
2023/04/07 00:25:13;;;;;;;11.23;3.90;;;;;;;16.73;55.67;101579.81;5069330;28;20378;-67
2023/04/07 00:27:39;;;;;;;15.90;4.47;;;;;;;16.41;55.21;101583.19;5089639;28;20024;-67
2023/04/07 00:30:05;;;;;;;13.63;4.30;;;;;;;16.69;55.16;101588.72;5085426;28;20505;-67
2023/04/07 00:32:30;;;;;;;11.77;4.13;;;;;;;16.52;55.26;101590.88;5087274;28;20028;-67
2023/04/07 00:34:56;;;;;;;9.40;3.63;;;;;;;15.21;59.97;101594.31;5088952;28;20050;-67
2023/04/07 00:37:21;;;;;;;10.37;3.50;;;;;;;15.26;59.25;101595.09;5085819;28;20071;-67
2023/04/07 00:39:47;;;;;;;14.20;3.83;;;;;;;14.61;63.13;101598.72;5087127;28;20027;-67
2023/04/07 00:42:12;;;;;;;11.77;4.17;;;;;;;15.85;59.74;101588.78;5086834;28;20083;-68
2023/04/07 00:44:38;;;;;;;10.10;4.17;;;;;;;15.88;60.66;101591.34;5088700;28;20027;-67
2023/04/07 00:47:04;;;;;;;11.90;4.23;;;;;;;15.29;60.81;101589.78;5088776;28;20131;-67
2023/04/07 00:49:30;;;;;;;18.77;4.00;;;;;;;16.04;59.62;101590.13;5080541;28;20886;-67
2023/04/07 00:52:00;;;;;;;12.50;5.00;;;;;;;15.87;58.15;101592.25;5066395;28;20376;-67
2023/04/07 00:54:25;;;;;;;14.77;3.70;;;;;;;14.67;63.10;101598.69;5050037;28;20024;-67
2023/04/07 00:56:52;;;;;;;16.10;3.43;;;;;;;15.36;60.43;101591.41;5051181;28;20502;-67
2023/04/07 00:59:18;;;;;;;15.20;4.90;;;;;;;16.49;56.91;101588.31;5067796;28;20437;-67
2023/04/07 01:01:54;;;;;;;18.23;4.03;;;;;;;16.13;55.51;101578.53;5046888;28;20020;-67
2023/04/07 01:04:48;;;;;;;12.97;3.03;;;;;;;15.17;60.00;101584.75;5030357;28;20036;-67
2023/04/07 01:07:31;;;;;;;16.13;3.57;;;;;;;15.83;58.40;101575.63;5038524;28;20036;-67
2023/04/07 01:09:59;;;;;;;;;;;;;;;16.55;54.49;101575.81;5072375;28;20028;-67
2023/04/07 01:12:42;;;;;;;16.20;3.77;;;;;;;16.24;54.38;101573.03;5069621;28;20007;-68
2023/04/07 01:15:09;;;;;;;;;;;;;;;16.99;52.34;101575.69;5040659;28;20074;-67
2023/04/07 01:17:37;;;;;;;15.33;3.33;;;;;;;16.58;52.88;101582.78;5072498;28;20031;-67
2023/04/07 01:20:07;;;;;;;9.97;2.83;;;;;;;16.34;54.05;101584.25;5071038;28;20063;-67
2023/04/07 01:22:41;;;;;;;19.67;3.33;;;;;;;16.07;54.56;101594.47;5052089;28;20054;-68
2023/04/07 01:25:25;;;;;;;14.20;3.30;;;;;;;15.39;56.68;101590.50;5072101;28;20029;-67
2023/04/07 01:28:00;;;;;;;10.73;2.70;;;;;;;15.57;57.37;101591.91;5053700;28;20055;-67
2023/04/07 01:30:30;;;;;;;14.20;2.93;;;;;;;16.34;53.61;101598.28;5052839;28;20036;-68
2023/04/07 01:32:57;;;;;;;21.03;3.73;;;;;;;15.68;54.97;101591.72;5071668;28;20059;-67
2023/04/07 01:35:25;;;;;;;13.10;2.77;;;;;;;15.67;56.64;101603.16;5071660;28;20024;-67
2023/04/07 01:37:52;;;;;;;17.43;3.17;;;;;;;15.58;55.54;101604.19;5071261;28;20130;-67
2023/04/07 01:40:20;;;;;;;15.17;3.27;;;;;;;15.73;55.69;101593.34;5069456;28;20104;-67
2023/04/07 01:42:47;;;;;;;17.93;3.47;;;;;;;15.70;55.06;101596.06;5051497;28;20024;-67
2023/04/07 01:45:15;;;;;;;15.53;3.33;;;;;;;16.04;54.98;101599.81;5070310;28;20032;-67
2023/04/07 01:47:41;;;;;;;18.87;4.53;;;;;;;15.67;55.63;101601.38;5053129;28;20543;-67
2023/04/07 01:50:09;;;;;;;17.77;3.93;;;;;;;15.66;55.99;101604.03;5069765;28;20132;-67
2023/04/07 01:52:36;;;;;;;16.70;3.50;;;;;;;15.88;55.20;101605.41;5071755;28;20035;-67
2023/04/07 01:55:05;;;;;;;14.73;4.53;;;;;;;16.53;53.15;101605.81;5051136;28;20543;-67
2023/04/07 01:57:31;;;;;;;19.90;4.10;;;;;;;16.71;52.47;101612.44;5053593;28;20029;-68
2023/04/07 01:59:56;;;;;;;17.53;4.00;;;;;;;16.99;52.17;101607.38;5068718;28;20115;-67
2023/04/07 02:02:21;;;;;;;9.73;3.77;;;;;;;16.21;53.91;101596.81;5070282;28;20028;-68
2023/04/07 02:04:55;;;;;;;19.70;4.13;;;;;;;15.87;53.92;101605.44;5054134;28;20500;-67
2023/04/07 02:07:28;;;;;;;20.47;3.73;;;;;;;15.72;55.63;101604.78;5053435;28;20036;-68
2023/04/07 02:09:56;;;;;;;;;;;;;;;15.84;55.56;101598.47;5048154;28;20028;-67
2023/04/07 02:12:25;;;;;;;17.83;4.90;;;;;;;15.67;56.10;101601.38;5052783;28;19916;-67
2023/04/07 02:14:51;;;;;;;16.13;4.63;;;;;;;15.42;57.68;101603.59;5052226;28;20506;-68
2023/04/07 02:17:17;;;;;;;17.37;5.10;;;;;;;15.88;55.91;101605.41;5052994;28;20027;-67
2023/04/07 02:19:44;;;;;;;16.77;4.40;;;;;;;15.12;58.35;101607.63;5068117;28;20028;-68
2023/04/07 02:22:11;;;;;;;19.30;4.40;;;;;;;15.92;56.32;101607.09;5070489;28;20024;-67
2023/04/07 02:24:40;;;;;;;20.37;5.73;;;;;;;15.39;58.59;101604.53;5053038;28;20068;-67
2023/04/07 02:27:06;;;;;;;21.40;4.93;;;;;;;15.06;58.79;101604.19;5049080;28;20468;-67
2023/04/07 02:29:31;;;;;;;19.73;5.07;;;;;;;15.09;58.46;101609.41;5050734;28;20125;-67
2023/04/07 02:31:56;;;;;;;23.10;5.57;;;;;;;14.88;60.58;101605.38;5053182;28;20028;-67
2023/04/07 02:34:22;;;;;;;18.90;5.23;;;;;;;15.07;60.27;101605.06;5052198;28;20032;-67
2023/04/07 02:36:47;;;;;;;15.03;4.73;;;;;;;15.70;57.67;101601.34;5052299;28;20167;-68
2023/04/07 02:39:12;;;;;;;16.97;5.13;;;;;;;15.69;56.87;101604.84;5052658;28;20024;-67
2023/04/07 02:41:38;;;;;;;24.60;5.63;;;;;;;16.35;54.32;101602.66;5050220;28;20032;-67
2023/04/07 02:44:06;;;;;;;20.53;5.70;;;;;;;16.35;54.02;101597.41;5051616;28;20043;-67
2023/04/07 02:46:32;;;;;;;18.23;5.33;;;;;;;15.71;55.94;101596.91;5070780;28;20077;-68
2023/04/07 02:48:57;;;;;;;16.63;4.83;;;;;;;15.81;55.14;101602.91;5068394;28;20048;-67
2023/04/07 02:51:22;;;;;;;12.17;5.30;;;;;;;16.08;54.81;101604.97;5068843;28;20028;-67
2023/04/07 02:53:48;;;;;;;18.77;5.07;;;;;;;15.91;54.92;101605.34;5070775;28;20024;-68
2023/04/07 02:56:15;;;;;;;21.87;4.90;;;;;;;16.24;54.42;101604.69;5052402;28;20617;-67
2023/04/07 02:58:40;;;;;;;21.60;4.93;;;;;;;16.43;53.86;101608.66;5050486;28;20025;-67
2023/04/07 03:01:05;;;;;;;17.00;4.20;;;;;;;16.15;54.74;101604.88;5051442;28;20025;-68
2023/04/07 03:03:31;;;;;;;18.40;4.93;;;;;;;15.75;54.77;101604.72;5049937;28;20044;-67
2023/04/07 03:05:56;;;;;;;15.67;4.57;;;;;;;16.48;53.39;101599.75;5051878;28;20484;-68
2023/04/07 03:08:21;;;;;;;24.63;4.93;;;;;;;15.67;57.19;101600.50;5050701;28;20045;-68
2023/04/07 03:10:47;;;;;;;25.60;5.93;;;;;;;15.95;55.07;101606.16;5067240;28;20059;-67
2023/04/07 03:13:15;;;;;;;16.67;5.03;;;;;;;16.55;54.43;101612.75;5069304;28;20024;-67
2023/04/07 03:15:40;;;;;;;18.03;4.70;;;;;;;16.23;55.15;101605.56;5051853;28;20511;-67
2023/04/07 03:18:06;;;;;;;20.80;4.77;;;;;;;16.39;54.76;101606.97;5051236;28;20012;-67
2023/04/07 03:20:31;;;;;;;20.83;5.27;;;;;;;15.87;56.38;101608.06;5069210;28;20039;-67
2023/04/07 03:22:56;;;;;;;11.57;4.10;;;;;;;16.55;54.52;101612.75;5052425;28;20385;-67
2023/04/07 03:25:22;;;;;;;14.30;4.07;;;;;;;16.47;54.42;101603.28;5066993;28;20043;-67
2023/04/07 03:27:47;;;;;;;17.87;4.10;;;;;;;15.96;56.42;101615.78;5051526;28;20504;-67
2023/04/07 03:30:13;;;;;;;19.40;4.80;;;;;;;16.66;54.32;101609.88;5068014;28;20064;-68
2023/04/07 03:32:38;;;;;;;19.30;4.07;;;;;;;16.01;55.80;101616.56;5050738;28;20035;-67
2023/04/07 03:35:04;;;;;;;11.73;4.53;;;;;;;15.36;56.38;101612.47;5051624;28;20400;-68
2023/04/07 03:37:29;;;;;;;15.77;3.83;;;;;;;15.53;57.16;101608.69;5069598;28;20496;-67
2023/04/07 03:39:55;;;;;;;20.63;4.73;;;;;;;15.95;56.50;101606.16;5068303;28;20060;-68
2023/04/07 03:42:20;;;;;;;22.03;5.10;;;;;;;16.34;54.74;101608.84;5067905;28;20485;-68
2023/04/07 03:44:46;;;;;;;11.93;4.53;;;;;;;16.05;56.04;101607.69;5051616;28;20384;-67
2023/04/07 03:47:11;;;;;;;15.13;4.40;;;;;;;16.22;55.59;101603.81;5050424;28;20119;-68
2023/04/07 03:49:37;;;;;;;18.70;4.20;;;;;;;15.25;58.45;101614.44;5057463;28;20135;-68
2023/04/07 03:52:04;;;;;;;14.50;4.57;;;;;;;16.19;56.31;101604.75;5069106;28;20070;-67
2023/04/07 03:54:29;;;;;;;16.47;4.40;;;;;;;16.06;55.75;101608.53;5066961;28;20385;-68
2023/04/07 03:56:56;;;;;;;21.07;4.57;;;;;;;15.57;58.86;101615.63;5069349;28;20028;-67
2023/04/07 03:59:21;;;;;;;18.97;5.23;;;;;;;16.40;55.23;101610.47;5067631;28;20433;-68
2023/04/07 04:01:47;;;;;;;20.70;5.50;;;;;;;16.77;54.87;101622.84;5068879;28;20027;-68
2023/04/07 04:04:12;;;;;;;15.67;6.17;;;;;;;16.25;56.43;101609.03;5068571;28;20648;-68
2023/04/07 04:06:37;;;;;;;16.30;5.20;;;;;;;15.55;59.86;101622.69;5069585;28;20029;-68
2023/04/07 04:09:06;;;;;;;18.67;5.17;;;;;;;15.93;58.09;101621.13;5066595;28;20146;-67
2023/04/07 04:11:31;;;;;;;15.13;5.07;;;;;;;15.89;58.24;101619.44;5050406;28;20031;-68
2023/04/07 04:13:57;;;;;;;16.60;4.80;;;;;;;15.51;59.18;101621.88;5069639;28;20024;-67
2023/04/07 04:16:22;;;;;;;15.47;5.00;;;;;;;16.67;55.50;101622.19;5068388;28;20024;-68
2023/04/07 04:18:47;;;;;;;18.43;5.60;;;;;;;16.86;53.75;101627.03;5049997;28;20074;-68
2023/04/07 04:21:13;;;;;;;18.53;4.97;;;;;;;16.18;55.75;101639.94;5049722;28;20479;-68
2023/04/07 04:23:38;;;;;;;14.97;4.10;;;;;;;15.93;57.30;101629.03;5049597;28;20220;-68
2023/04/07 04:26:06;;;;;;;14.47;4.50;;;;;;;15.68;57.78;101642.66;5068198;28;20094;-69
2023/04/07 04:28:31;;;;;;;10.00;4.10;;;;;;;15.17;58.88;101642.66;5050487;28;20103;-67
2023/04/07 04:31:00;;;;;;;6.77;3.30;;;;;;;15.23;59.31;101647.81;5068178;28;20177;-67
2023/04/07 04:33:25;;;;;;;11.30;3.90;;;;;;;15.63;57.44;101639.22;5050770;28;20021;-68
2023/04/07 04:35:50;;;;;;;11.07;3.37;;;;;;;14.56;62.81;101645.28;5050118;28;20036;-68
2023/04/07 04:38:16;;;;;;;12.67;4.20;;;;;;;15.44;59.15;101642.19;5048607;28;20464;-68
2023/04/07 04:40:41;;;;;;;8.73;3.20;;;;;;;15.03;59.38;101641.13;5068623;28;20039;-67
2023/04/07 04:43:08;;;;;;;9.80;3.53;;;;;;;16.32;55.47;101637.03;5052693;28;20024;-68
2023/04/07 04:45:34;;;;;;;9.57;3.30;;;;;;;14.80;59.28;101637.97;5055310;28;20025;-68
2023/04/07 04:47:59;;;;;;;5.67;3.27;;;;;;;15.24;58.40;101644.31;5073239;28;20027;-68
2023/04/07 04:50:25;;;;;;;11.80;3.13;;;;;;;16.15;55.60;101640.00;5068564;28;20041;-67
2023/04/07 04:52:50;;;;;;;10.07;2.80;;;;;;;16.44;53.59;101644.69;5052418;28;20488;-68
2023/04/07 04:55:16;;;;;;;8.07;2.83;;;;;;;16.32;54.20;101646.69;5052617;28;20055;-68
2023/04/07 04:57:41;;;;;;;13.50;3.17;;;;;;;16.03;54.24;101646.41;5049990;28;20373;-68
2023/04/07 05:00:07;;;;;;;10.63;3.63;;;;;;;15.67;54.12;101645.31;5059635;28;20033;-68
2023/04/07 05:02:32;;;;;;;12.63;3.57;;;;;;;16.88;52.85;101647.19;5065871;28;20028;-69
2023/04/07 05:04:58;;;;;;;11.07;3.37;;;;;;;16.51;53.96;101647.19;5070755;28;20039;-69
2023/04/07 05:07:24;;;;;;;7.37;3.23;;;;;;;16.45;53.71;101649.03;5051973;28;20024;-69
2023/04/07 05:09:49;;;;;;;11.27;3.47;;;;;;;16.69;52.85;101646.78;5067516;28;20498;-67
2023/04/07 05:12:15;;;;;;;9.97;3.20;;;;;;;16.82;53.04;101651.78;5052541;28;20035;-68
2023/04/07 05:14:40;;;;;;;10.53;3.07;;;;;;;15.94;54.00;101658.00;5053501;28;20028;-68
2023/04/07 05:17:05;;;;;;;15.43;3.77;;;;;;;16.85;53.25;101652.56;5052508;28;20032;-68
2023/04/07 05:19:31;;;;;;;7.80;3.00;;;;;;;16.11;52.83;101657.69;5071776;28;20582;-68
2023/04/07 05:21:57;;;;;;;9.87;3.63;;;;;;;16.30;53.28;101657.28;5071410;28;20032;-69
2023/04/07 05:24:22;;;;;;;7.77;3.23;;;;;;;16.00;55.69;101662.28;5051615;28;20059;-68
2023/04/07 05:26:47;;;;;;;12.00;3.50;;;;;;;15.44;57.93;101667.66;5052610;28;20044;-69
2023/04/07 05:29:13;;;;;;;19.57;4.10;;;;;;;16.28;54.33;101673.16;5053941;28;20118;-68
2023/04/07 05:31:39;;;;;;;11.53;3.17;;;;;;;16.61;53.58;101665.41;5050861;28;20025;-69
2023/04/07 05:34:05;;;;;;;16.90;4.00;;;;;;;16.17;54.90;101668.97;5068714;28;20103;-68
2023/04/07 05:36:30;;;;;;;14.00;4.63;;;;;;;15.77;55.86;101676.75;5052446;28;20024;-68
2023/04/07 05:38:56;;;;;;;15.37;3.57;;;;;;;15.13;59.41;101691.00;5051030;28;20091;-68
2023/04/07 05:41:21;;;;;;;15.30;2.67;;;;;;;16.07;55.19;101687.66;5071790;28;20024;-68
2023/04/07 05:43:46;;;;;;;12.77;2.50;;;;;;;14.98;57.48;101678.94;5054397;28;20024;-68
2023/04/07 05:46:12;;;;;;;8.67;2.30;;;;;;;15.39;56.88;101680.91;5052151;28;20048;-68
2023/04/07 05:48:37;;;;;;;6.63;2.10;;;;;;;14.04;59.05;101695.00;5069591;28;20028;-67
2023/04/07 05:51:02;;;;;;;4.90;2.13;;;;;;;15.26;55.38;101679.38;5053882;28;20036;-68
2023/04/07 05:53:28;;;;;;;5.00;1.93;;;;;;;14.89;55.52;101685.19;5071212;28;20024;-68
2023/04/07 05:55:53;;;;;;;6.57;2.10;;;;;;;14.60;56.04;101686.44;5052901;28;20405;-68
2023/04/07 05:58:19;;;;;;;10.17;2.30;;;;;;;14.31;57.93;101692.94;5051781;28;20035;-67
2023/04/07 06:00:44;;;;;;;9.73;2.80;;;;;;;15.27;55.24;101699.56;5052651;28;20166;-68
2023/04/07 06:03:10;;;;;;;6.00;2.40;;;;;;;15.69;53.64;101693.56;5070192;28;20096;-68
2023/04/07 06:05:35;;;;;;;8.87;2.70;;;;;;;16.43;51.58;101693.06;5071876;28;20032;-68
2023/04/07 06:08:01;;;;;;;8.43;2.53;;;;;;;17.10;49.66;101700.44;5051424;28;20502;-68
2023/04/07 06:10:26;;;;;;;10.67;2.40;;;;;;;17.48;48.02;101705.69;5043159;28;20048;-68
2023/04/07 06:12:51;;;;;;;9.00;2.80;;;;;;;16.09;52.16;101706.94;5071708;28;20021;-68
2023/04/07 06:15:17;;;;;;;10.97;2.80;;;;;;;16.47;51.35;101704.41;5052255;28;20086;-68
2023/04/07 06:17:44;;;;;;;5.83;2.30;;;;;;;16.57;50.97;101705.13;5070355;28;20115;-68
2023/04/07 06:20:10;;;;;;;5.67;2.73;;;;;;;16.39;51.70;101707.22;5051989;28;20036;-68
2023/04/07 06:22:36;;;;;;;6.50;2.30;;;;;;;17.15;50.61;101707.38;5050030;28;20070;-68
2023/04/07 06:25:01;;;;;;;6.87;2.10;;;;;;;17.75;48.81;101704.13;5068829;28;20028;-68
2023/04/07 06:27:27;;;;;;;7.00;1.83;;;;;;;15.07;54.29;101698.09;5067288;28;20027;-69
2023/04/07 06:29:52;;;;;;;7.57;2.37;;;;;;;16.13;52.86;101704.22;5070805;28;20538;-68
2023/04/07 06:32:19;;;;;;;10.03;2.27;;;;;;;16.02;53.08;101707.97;5052275;28;20028;-68
2023/04/07 06:34:44;;;;;;;10.73;1.97;;;;;;;15.85;53.53;101707.38;5053294;28;20093;-69
2023/04/07 06:37:10;;;;;;;10.53;2.30;;;;;;;16.03;51.99;101714.09;5066409;28;20029;-68
2023/04/07 06:39:37;;;;;;;9.50;2.60;;;;;;;17.02;51.82;101702.41;5070399;28;20039;-68
2023/04/07 06:42:02;;;;;;;6.40;1.90;;;;;;;16.65;51.39;101705.81;5051914;28;20107;-68
2023/04/07 06:44:27;;;;;;;16.77;2.33;;;;;;;16.21;51.92;101703.19;5050188;28;20131;-68
2023/04/07 06:46:54;;;;;;;8.83;1.97;;;;;;;16.89;50.98;101706.22;5050499;28;20359;-69
2023/04/07 06:49:19;;;;;;;6.70;1.57;;;;;;;15.71;53.97;101719.00;5060146;28;20049;-69
2023/04/07 06:51:45;;;;;;;7.50;1.70;;;;;;;15.51;53.74;101722.00;5089955;28;20065;-68
2023/04/07 06:54:12;;;;;;;10.57;1.57;;;;;;;16.45;53.08;101717.66;5087062;28;20373;-68
2023/04/07 06:56:39;;;;;;;6.07;1.53;;;;;;;17.08;50.94;101728.66;5088139;28;20055;-68
2023/04/07 06:59:04;;;;;;;9.13;1.43;;;;;;;16.48;50.97;101721.13;5086749;28;20034;-69
2023/04/07 07:01:30;;;;;;;7.70;1.67;;;;;;;16.44;52.24;101729.13;5088888;28;20242;-68
2023/04/07 07:03:55;;;;;;;8.00;1.53;;;;;;;15.83;54.14;101738.19;5089776;28;20467;-67
2023/04/07 07:06:25;;;;;;;11.17;1.80;;;;;;;15.35;55.27;101745.06;5087751;28;20032;-68
2023/04/07 07:08:50;;;;;;;10.57;1.73;;;;;;;15.64;56.08;101749.00;5088843;28;20024;-68
2023/04/07 07:11:15;;;;;;;14.13;2.10;;;;;;;15.63;55.96;101742.00;5089830;28;20107;-68
2023/04/07 07:13:41;;;;;;;12.23;2.43;;;;;;;16.52;53.42;101750.06;5089124;28;20062;-68
2023/04/07 07:16:06;;;;;;;5.47;1.63;;;;;;;14.66;57.49;101752.19;5089055;28;20395;-68
2023/04/07 07:18:31;;;;;;;12.53;1.90;;;;;;;14.14;59.42;101772.00;5088898;28;20028;-67
2023/04/07 07:20:57;;;;;;;10.47;1.80;;;;;;;14.81;58.24;101760.75;5089233;28;20036;-68
2023/04/07 07:23:22;;;;;;;13.47;2.37;;;;;;;15.57;55.63;101763.19;5088012;28;20020;-68
2023/04/07 07:25:47;;;;;;;12.57;1.60;;;;;;;14.73;57.34;101769.63;5088210;28;20024;-67
2023/04/07 07:28:13;;;;;;;6.40;1.73;;;;;;;15.07;55.06;101777.09;5088831;28;20051;-68
2023/04/07 07:30:41;;;;;;;6.07;1.67;;;;;;;14.21;57.45;101785.97;5088266;28;20027;-68
2023/04/07 07:33:07;;;;;;;7.83;1.80;;;;;;;16.05;52.91;101781.72;5086829;28;20056;-67
2023/04/07 07:35:32;;;;;;;9.80;2.13;;;;;;;14.98;55.41;101782.47;5088293;28;20495;-67
2023/04/07 07:37:58;;;;;;;12.83;2.03;;;;;;;15.81;53.42;101776.88;5084391;28;20031;-67
2023/04/07 07:40:23;;;;;;;6.90;1.77;;;;;;;14.85;53.56;101789.66;5086612;28;20749;-68
2023/04/07 07:42:48;;;;;;;10.23;1.83;;;;;;;13.99;57.17;101787.94;5079144;28;20472;-67
2023/04/07 07:45:14;;;;;;;7.70;2.00;;;;;;;15.85;53.44;101789.13;5086737;28;20028;-68
2023/04/07 07:47:40;;;;;;;9.80;2.00;;;;;;;15.66;52.94;101792.03;5089543;28;20074;-68
2023/04/07 07:50:06;;;;;;;10.23;2.13;;;;;;;15.89;51.90;101788.16;5074322;28;20052;-68
2023/04/07 07:52:31;;;;;;;10.47;1.67;;;;;;;15.57;53.94;101785.13;5050302;28;20020;-68
2023/04/07 07:54:56;;;;;;;10.83;1.97;;;;;;;15.66;52.51;101789.41;5050072;28;20028;-67
2023/04/07 07:57:22;;;;;;;11.63;4.23;;;;;;;16.27;51.28;101795.38;5068207;28;20060;-68
2023/04/07 07:59:47;;;;;;;7.50;2.23;;;;;;;15.17;53.23;101790.13;5068591;28;20036;-68
2023/04/07 08:02:13;;;;;;;10.60;2.73;;;;;;;15.49;53.78;101786.16;5047615;28;20633;-67
2023/04/07 08:04:38;;;;;;;13.57;2.80;;;;;;;16.63;51.14;101794.72;5047160;28;20032;-67
2023/04/07 08:07:04;;;;;;;13.87;3.00;;;;;;;15.48;53.63;101794.94;5046043;28;20025;-68
2023/04/07 08:09:31;;;;;;;11.37;2.17;;;;;;;15.99;52.51;101797.66;5050206;28;20024;-68
2023/04/07 08:11:57;;;;;;;15.70;1.70;;;;;;;15.74;52.53;101800.69;5065002;28;20090;-68
2023/04/07 08:14:22;;;;;;;10.40;2.33;;;;;;;16.54;51.97;101803.69;5046328;28;20044;-68
2023/04/07 08:16:47;;;;;;;13.13;1.80;;;;;;;17.01;50.06;101794.84;5062939;28;20028;-68
2023/04/07 08:19:13;;;;;;;8.40;1.70;;;;;;;15.09;54.18;101806.03;5048974;28;20020;-68
2023/04/07 08:21:39;;;;;;;9.53;1.73;;;;;;;14.37;55.38;101819.13;5050598;28;20050;-67
2023/04/07 08:24:05;;;;;;;10.53;1.57;;;;;;;15.27;52.48;101818.06;5048468;28;20032;-68
2023/04/07 08:26:31;;;;;;;10.87;2.50;;;;;;;15.66;52.58;101815.75;5061108;28;20465;-69
2023/04/07 08:28:57;;;;;;;8.27;1.90;;;;;;;16.06;49.96;101815.13;5048606;28;20035;-68
2023/04/07 08:31:23;;;;;;;12.30;4.90;;;;;;;15.52;51.21;101817.72;5048676;28;20106;-68
2023/04/07 08:33:52;;;;;;;9.97;2.17;;;;;;;15.58;51.28;101818.50;5050546;28;20036;-69
2023/04/07 08:36:18;;;;;;;5.93;1.57;;;;;;;14.73;52.46;101832.78;5049091;28;20403;-68
2023/04/07 08:38:44;;;;;;;3.43;1.27;;;;;;;15.33;52.99;101827.63;5050210;28;20033;-68
2023/04/07 08:41:12;;;;;;;11.23;1.80;;;;;;;15.41;51.82;101826.66;5067491;28;20034;-68
2023/04/07 08:43:38;;;;;;;8.03;1.23;;;;;;;15.34;51.86;101832.03;5049972;28;20036;-68
2023/04/07 08:46:10;;;;;;;11.27;1.73;;;;;;;16.34;49.60;101827.81;5049211;28;20028;-68
2023/04/07 08:48:37;;;;;;;6.32;1.30;;;;;;;14.69;52.75;101841.59;5065323;28;20422;-67
2023/04/07 08:51:08;;;;;;;7.00;1.60;;;;;;;15.46;51.58;101833.63;5038468;28;20035;-68
2023/04/07 08:53:49;;;;;;;14.13;2.30;;;;;;;15.82;50.61;101836.63;5036471;28;20028;-69
2023/04/07 08:56:16;;;;;;;14.27;2.20;;;;;;;14.54;54.87;101847.00;5045865;28;20036;-69
2023/04/07 08:58:43;;;;;;;12.33;1.47;;;;;;;15.75;51.80;101836.66;5040490;28;20033;-68
2023/04/07 09:01:09;;;;;;;13.77;2.00;;;;;;;15.36;52.14;101839.03;5047109;28;20025;-68
2023/04/07 09:03:35;;;;;;;16.93;1.80;;;;;;;16.43;50.25;101838.19;5056971;28;20035;-68
2023/04/07 09:06:00;;;;;;;10.77;1.83;;;;;;;16.22;51.29;101841.22;5038588;28;20698;-68
2023/04/07 09:08:26;;;;;;;10.60;1.67;;;;;;;15.77;51.30;101844.56;5042124;28;20017;-69
2023/04/07 09:10:53;;;;;;;8.73;1.73;;;;;;;15.16;52.71;101855.06;5048192;28;20035;-69
2023/04/07 09:13:18;;;;;;;7.03;2.30;;;;;;;15.73;50.34;101854.28;5064683;28;20091;-69
2023/04/07 09:15:44;;;;;;;9.37;2.00;;;;;;;17.26;48.25;101848.03;5068252;28;20044;-69
2023/04/07 09:18:10;;;;;;;6.43;1.60;;;;;;;16.70;49.46;101849.13;5054154;28;20035;-68
2023/04/07 09:21:07;;;;;;;11.90;2.03;;;;;;;15.92;50.94;101846.09;5048858;28;20104;-68
2023/04/07 09:23:36;;;;;;;11.60;1.70;;;;;;;16.34;51.59;101842.78;5003884;28;20036;-69
2023/04/07 09:26:23;;;;;;;17.17;3.07;;;;;;;17.78;47.22;101852.09;5049263;28;20037;-68
2023/04/07 09:28:54;;;;;;;15.17;2.20;;;;;;;15.93;52.77;101850.50;5036613;28;20028;-68
2023/04/07 09:31:22;;;;;;;11.97;2.23;;;;;;;15.77;52.72;101855.97;5048350;28;20029;-69
2023/04/07 09:33:49;;;;;;;12.47;2.00;;;;;;;15.06;53.83;101859.59;5065851;28;20028;-69
2023/04/07 09:36:15;;;;;;;11.13;1.83;;;;;;;15.85;52.43;101852.38;5054623;28;20028;-68
2023/04/07 09:38:42;;;;;;;15.87;2.50;;;;;;;16.87;49.94;101853.19;5065697;28;20029;-68
2023/04/07 09:41:18;;;;;;;10.13;2.00;;;;;;;15.88;51.34;101852.31;5048330;28;20028;-68
2023/04/07 09:43:45;;;;;;;16.17;1.93;;;;;;;15.98;52.05;101858.31;5070531;28;20480;-68
2023/04/07 09:46:17;;;;;;;10.93;2.10;;;;;;;16.82;49.89;101860.34;5052627;28;20024;-68
2023/04/07 09:48:44;;;;;;;14.60;2.33;;;;;;;16.88;49.65;101862.88;5071670;28;20428;-68
2023/04/07 09:51:15;;;;;;;14.80;2.80;;;;;;;15.69;52.40;101871.03;5053806;28;20040;-68
2023/04/07 09:53:46;;;;;;;12.50;1.50;;;;;;;15.83;51.96;101867.38;5053149;28;20499;-68
2023/04/07 09:56:15;;;;;;;8.00;1.70;;;;;;;16.06;51.20;101864.34;5071635;28;20614;-68
2023/04/07 09:58:40;;;;;;;8.67;1.60;;;;;;;15.52;51.14;101870.41;5053541;28;20445;-68
2023/04/07 10:01:08;;;;;;;9.43;1.60;;;;;;;16.21;51.07;101865.84;5052658;28;20021;-68
2023/04/07 10:03:34;;;;;;;13.00;2.10;;;;;;;16.18;51.03;101860.63;5053544;28;20512;-69
2023/04/07 10:06:00;;;;;;;11.97;1.97;;;;;;;17.06;48.44;101862.53;5050850;28;20028;-69
2023/04/07 10:08:27;;;;;;;11.93;2.07;;;;;;;16.99;48.57;101865.31;5051209;28;20082;-68
2023/04/07 10:10:54;;;;;;;6.77;1.53;;;;;;;16.44;50.32;101874.25;5033934;28;20013;-68
2023/04/07 10:13:20;;;;;;;7.23;1.40;;;;;;;15.88;51.89;101874.31;5050395;28;20036;-68
2023/04/07 10:15:47;;;;;;;12.40;1.67;;;;;;;16.37;49.78;101867.31;5033472;28;20366;-68
2023/04/07 10:18:13;;;;;;;8.30;1.80;;;;;;;17.21;48.26;101871.03;5061477;28;20032;-68
2023/04/07 10:20:43;;;;;;;17.40;2.47;;;;;;;16.65;48.97;101872.13;5070921;28;20031;-69
2023/04/07 10:23:36;;;;;;;10.90;2.07;;;;;;;15.86;51.37;101870.81;5061210;28;20029;-68
2023/04/07 10:26:02;;;;;;;;;;;;;;;16.72;49.34;101876.38;4988896;28;20036;-69
2023/04/07 10:28:30;;;;;;;8.93;1.83;;;;;;;16.84;48.65;101871.75;5050418;28;20293;-68
2023/04/07 10:30:56;;;;;;;11.90;1.73;;;;;;;16.59;48.87;101872.22;5033648;28;20389;-69
2023/04/07 10:33:45;;;;;;;9.27;1.93;;;;;;;16.39;48.10;101873.47;5033232;28;20052;-69
2023/04/07 10:36:12;;;;;;;10.77;1.80;;;;;;;17.62;47.22;101872.72;5049387;28;20024;-69
2023/04/07 10:38:37;;;;;;;6.00;2.10;;;;;;;17.45;47.49;101883.69;5051561;28;20028;-69
2023/04/07 10:41:35;;;;;;;14.93;2.63;;;;;;;16.97;48.27;101894.41;5032489;28;20048;-68
2023/04/07 10:44:02;;;;;;;11.73;2.97;;;;;;;16.27;49.94;101897.41;5033254;28;20284;-68
2023/04/07 10:46:47;;;;;;;14.63;2.17;;;;;;;16.74;49.24;101882.47;5032948;28;20048;-69
2023/04/07 10:49:13;;;;;;;10.67;2.73;;;;;;;16.74;48.71;101887.75;5041146;28;20450;-69
2023/04/07 10:51:39;;;;;;;9.97;2.57;;;;;;;17.49;48.45;101886.25;5071399;28;20457;-69
2023/04/07 10:54:21;;;;;;;18.83;3.30;;;;;;;16.20;51.88;101901.06;5069301;28;20039;-69
2023/04/07 10:57:02;;;;;;;13.30;2.50;;;;;;;17.13;49.65;101894.94;5068892;28;20035;-68
2023/04/07 10:59:31;;;;;;;12.23;2.50;;;;;;;16.93;50.35;101900.66;5070647;28;20480;-69
2023/04/07 11:02:16;;;;;;;9.27;2.13;;;;;;;16.00;50.67;101904.88;5070957;28;20042;-69
2023/04/07 11:04:44;;;;;;;10.23;2.17;;;;;;;17.08;49.65;101902.97;5069523;28;20028;-69
2023/04/07 11:07:10;;;;;;;9.30;2.20;;;;;;;16.02;50.95;101902.19;5068808;28;20020;-69
2023/04/07 11:09:36;;;;;;;10.27;1.67;;;;;;;16.94;49.30;101905.03;5068698;28;20342;-69
2023/04/07 11:12:01;;;;;;;12.03;1.97;;;;;;;15.99;51.93;101905.78;5069336;28;20024;-69
2023/04/07 11:14:28;;;;;;;14.40;2.23;;;;;;;16.45;51.36;101912.91;5068791;28;20648;-68
2023/04/07 11:16:55;;;;;;;16.73;4.50;;;;;;;17.00;50.39;101910.19;5069843;28;20032;-68
2023/04/07 11:19:21;;;;;;;24.70;5.67;;;;;;;16.73;50.34;101912.44;5070191;28;20031;-69